sensor_id;sensor_type;location;lat;lon;timestamp;temperature;humidity
43320;DHT22;28914;48.722;9.332;2022-09-21T00:00:08;9.70;78.30
43320;DHT22;28914;48.722;9.332;2022-09-21T00:05:28;9.70;78.40
43320;DHT22;28914;48.722;9.332;2022-09-21T00:10:49;9.70;78.40
43320;DHT22;28914;48.722;9.332;2022-09-21T00:16:08;9.60;78.60
43320;DHT22;28914;48.722;9.332;2022-09-21T00:21:28;9.60;78.60
43320;DHT22;28914;48.722;9.332;2022-09-21T00:26:47;9.60;78.70
43320;DHT22;28914;48.722;9.332;2022-09-21T00:32:06;9.60;78.80
43320;DHT22;28914;48.722;9.332;2022-09-21T00:37:26;9.50;78.80
43320;DHT22;28914;48.722;9.332;2022-09-21T00:42:45;9.50;79.00
43320;DHT22;28914;48.722;9.332;2022-09-21T00:48:05;9.40;79.00
43320;DHT22;28914;48.722;9.332;2022-09-21T00:53:24;9.30;79.10
43320;DHT22;28914;48.722;9.332;2022-09-21T00:58:46;9.30;79.10
43320;DHT22;28914;48.722;9.332;2022-09-21T01:04:08;9.30;79.30
43320;DHT22;28914;48.722;9.332;2022-09-21T01:09:28;9.20;79.20
43320;DHT22;28914;48.722;9.332;2022-09-21T01:31:56;9.00;79.50
43320;DHT22;28914;48.722;9.332;2022-09-21T01:37:23;9.00;79.50
43320;DHT22;28914;48.722;9.332;2022-09-21T01:42:44;9.00;79.50
43320;DHT22;28914;48.722;9.332;2022-09-21T01:48:05;8.90;79.50
43320;DHT22;28914;48.722;9.332;2022-09-21T01:53:32;8.90;79.50
43320;DHT22;28914;48.722;9.332;2022-09-21T01:59:17;8.80;79.70
43320;DHT22;28914;48.722;9.332;2022-09-21T02:04:38;8.80;79.90
43320;DHT22;28914;48.722;9.332;2022-09-21T02:09:57;8.80;80.00
43320;DHT22;28914;48.722;9.332;2022-09-21T02:15:21;8.70;79.60
43320;DHT22;28914;48.722;9.332;2022-09-21T02:20:51;8.70;80.10
43320;DHT22;28914;48.722;9.332;2022-09-21T02:26:22;8.60;79.60
43320;DHT22;28914;48.722;9.332;2022-09-21T02:31:51;8.60;80.20
43320;DHT22;28914;48.722;9.332;2022-09-21T02:37:27;8.50;80.00
43320;DHT22;28914;48.722;9.332;2022-09-21T02:42:52;8.40;80.00
43320;DHT22;28914;48.722;9.332;2022-09-21T02:48:26;8.40;80.60
43320;DHT22;28914;48.722;9.332;2022-09-21T02:53:49;8.30;80.10
43320;DHT22;28914;48.722;9.332;2022-09-21T02:59:09;8.30;80.00
43320;DHT22;28914;48.722;9.332;2022-09-21T03:04:29;8.30;80.20
43320;DHT22;28914;48.722;9.332;2022-09-21T03:09:49;8.20;79.80
43320;DHT22;28914;48.722;9.332;2022-09-21T03:20:30;8.10;80.20
43320;DHT22;28914;48.722;9.332;2022-09-21T03:25:50;8.10;80.20
43320;DHT22;28914;48.722;9.332;2022-09-21T03:31:12;8.00;80.00
43320;DHT22;28914;48.722;9.332;2022-09-21T03:36:32;8.10;80.70
43320;DHT22;28914;48.722;9.332;2022-09-21T03:41:51;8.00;80.00
43320;DHT22;28914;48.722;9.332;2022-09-21T03:47:14;8.00;80.10
43320;DHT22;28914;48.722;9.332;2022-09-21T03:52:33;8.00;80.20
43320;DHT22;28914;48.722;9.332;2022-09-21T04:08:31;7.90;80.30
43320;DHT22;28914;48.722;9.332;2022-09-21T04:13:51;7.90;81.00
43320;DHT22;28914;48.722;9.332;2022-09-21T04:19:17;7.80;81.00
43320;DHT22;28914;48.722;9.332;2022-09-21T04:24:37;7.70;80.30
43320;DHT22;28914;48.722;9.332;2022-09-21T04:29:59;7.70;80.30
43320;DHT22;28914;48.722;9.332;2022-09-21T04:35:18;7.70;80.50
43320;DHT22;28914;48.722;9.332;2022-09-21T04:40:37;7.70;80.50
43320;DHT22;28914;48.722;9.332;2022-09-21T04:56:36;7.50;80.50
43320;DHT22;28914;48.722;9.332;2022-09-21T05:01:55;7.60;81.30
43320;DHT22;28914;48.722;9.332;2022-09-21T05:07:15;7.50;81.30
43320;DHT22;28914;48.722;9.332;2022-09-21T05:17:54;7.50;81.10
43320;DHT22;28914;48.722;9.332;2022-09-21T05:23:13;7.50;81.10
43320;DHT22;28914;48.722;9.332;2022-09-21T05:34:22;7.50;81.60
43320;DHT22;28914;48.722;9.332;2022-09-21T05:45:02;7.60;81.90
43320;DHT22;28914;48.722;9.332;2022-09-21T06:06:43;7.80;83.20
43320;DHT22;28914;48.722;9.332;2022-09-21T06:12:03;7.90;84.00
43320;DHT22;28914;48.722;9.332;2022-09-21T06:17:22;7.90;84.70
43320;DHT22;28914;48.722;9.332;2022-09-21T06:22:41;8.10;84.80
43320;DHT22;28914;48.722;9.332;2022-09-21T06:28:11;8.10;85.50
43320;DHT22;28914;48.722;9.332;2022-09-21T06:33:30;8.20;85.60
43320;DHT22;28914;48.722;9.332;2022-09-21T06:38:50;8.40;86.10
43320;DHT22;28914;48.722;9.332;2022-09-21T06:44:10;8.50;86.80
43320;DHT22;28914;48.722;9.332;2022-09-21T06:49:29;8.70;86.10
43320;DHT22;28914;48.722;9.332;2022-09-21T06:54:48;8.90;85.70
43320;DHT22;28914;48.722;9.332;2022-09-21T07:00:09;9.10;85.80
43320;DHT22;28914;48.722;9.332;2022-09-21T07:05:29;9.30;85.80
43320;DHT22;28914;48.722;9.332;2022-09-21T07:10:48;9.60;85.80
43320;DHT22;28914;48.722;9.332;2022-09-21T07:16:08;9.90;85.50
43320;DHT22;28914;48.722;9.332;2022-09-21T07:21:27;10.10;85.00
43320;DHT22;28914;48.722;9.332;2022-09-21T07:26:47;10.40;84.30
43320;DHT22;28914;48.722;9.332;2022-09-21T07:32:07;10.60;84.20
43320;DHT22;28914;48.722;9.332;2022-09-21T07:37:30;10.80;84.10
43320;DHT22;28914;48.722;9.332;2022-09-21T07:42:49;11.20;84.20
43320;DHT22;28914;48.722;9.332;2022-09-21T07:48:08;11.50;84.20
43320;DHT22;28914;48.722;9.332;2022-09-21T07:53:27;11.90;83.70
43320;DHT22;28914;48.722;9.332;2022-09-21T07:58:47;12.30;82.60
43320;DHT22;28914;48.722;9.332;2022-09-21T08:04:24;12.70;82.40
43320;DHT22;28914;48.722;9.332;2022-09-21T08:09:44;13.10;81.40
43320;DHT22;28914;48.722;9.332;2022-09-21T08:15:07;13.50;81.10
43320;DHT22;28914;48.722;9.332;2022-09-21T08:20:26;14.10;82.10
43320;DHT22;28914;48.722;9.332;2022-09-21T08:25:47;15.00;80.40
43320;DHT22;28914;48.722;9.332;2022-09-21T08:31:08;16.30;80.40
43320;DHT22;28914;48.722;9.332;2022-09-21T08:36:27;18.30;79.70
43320;DHT22;28914;48.722;9.332;2022-09-21T08:42:10;20.90;78.60
43320;DHT22;28914;48.722;9.332;2022-09-21T08:53:47;26.50;60.10
43320;DHT22;28914;48.722;9.332;2022-09-21T08:58:41;28.70;56.50
43320;DHT22;28914;48.722;9.332;2022-09-21T09:10:28;32.70;48.40
43320;DHT22;28914;48.722;9.332;2022-09-21T09:21:23;35.90;42.50
43320;DHT22;28914;48.722;9.332;2022-09-21T09:26:51;37.10;40.40
43320;DHT22;28914;48.722;9.332;2022-09-21T09:32:15;37.90;37.90
43320;DHT22;28914;48.722;9.332;2022-09-21T09:37:38;38.50;38.50
43320;DHT22;28914;48.722;9.332;2022-09-21T09:43:27;39.00;30.00
43320;DHT22;28914;48.722;9.332;2022-09-21T09:49:03;38.70;32.20
43320;DHT22;28914;48.722;9.332;2022-09-21T09:54:26;38.60;30.60
43320;DHT22;28914;48.722;9.332;2022-09-21T09:59:52;38.60;30.70
43320;DHT22;28914;48.722;9.332;2022-09-21T10:05:34;38.90;29.10
43320;DHT22;28914;48.722;9.332;2022-09-21T10:10:56;38.90;29.00
43320;DHT22;28914;48.722;9.332;2022-09-21T10:16:20;39.20;27.50
43320;DHT22;28914;48.722;9.332;2022-09-21T10:21:40;38.20;28.30
43320;DHT22;28914;48.722;9.332;2022-09-21T10:27:09;37.50;31.00
43320;DHT22;28914;48.722;9.332;2022-09-21T10:32:31;36.40;30.90
43320;DHT22;28914;48.722;9.332;2022-09-21T10:38:19;36.60;32.70
43320;DHT22;28914;48.722;9.332;2022-09-21T10:43:40;38.20;31.30
43320;DHT22;28914;48.722;9.332;2022-09-21T10:49:03;38.80;29.40
43320;DHT22;28914;48.722;9.332;2022-09-21T10:54:26;38.40;29.90
43320;DHT22;28914;48.722;9.332;2022-09-21T10:59:46;37.40;29.20
43320;DHT22;28914;48.722;9.332;2022-09-21T11:05:14;35.90;29.50
43320;DHT22;28914;48.722;9.332;2022-09-21T11:16:49;32.60;31.10
43320;DHT22;28914;48.722;9.332;2022-09-21T11:22:32;33.10;33.10
43320;DHT22;28914;48.722;9.332;2022-09-21T11:28:23;34.50;30.80
43320;DHT22;28914;48.722;9.332;2022-09-21T11:34:03;35.70;32.50
